• Join FlightAware (Why Join?)
  • Login
  • US Flag 
09:09AM EDT


 

Airport Tracker/Info


-or-


 

Live Flight TrackerFlight Track Log ✈ UAL5822 ✈ 29-Apr-2013 ✈ KMHT - KORD

Flight Track Log - Related Links

Times and Time Zones

All times are in EDT time to prevent confusion due to time zone crossing. See the UAL5822 flight status page for this flight to view local times or setup timezone preferences in your user account.

Time Position Orientation Groundspeed Altitude Reporting Facility
EDT Latitude Longitude Course Direction KTS MPH feet Rate Location/Type
06:59AM 42.9500 -71.4167 36° Northeast 179 206 1,000  Level KA90
07:00AM 42.9667 -71.4000 36° Northeast 195 224 1,700 1,680 Climbing KA90
07:01AM 43.0503 -71.4231 349° North 189 217 4,300 1,980 Climbing Boston Center
07:02AM 43.0781 -71.5133 293° West 229 264 6,800 2,100 Climbing Boston Center
07:03AM 43.0872 -71.6156 277° West 263 303 8,600 1,800 Climbing Boston Center
07:04AM 43.0900 -71.7181 272° West 282 325 10,500 1,380 Climbing Boston Center
07:05AM 43.0950 -71.8372 273° West 300 345 11,400 1,200 Climbing Boston Center
07:06AM 43.0975 -71.9653 272° West 327 376 13,000 1,500 Climbing Boston Center
07:07AM 43.1022 -72.0933 273° West 332 382 14,500 1,320 Climbing Boston Center
07:08AM 43.1067 -72.2239 273° West 339 390 15,700 900 Climbing Boston Center
07:09AM 43.1111 -72.3433 273° West 349 402 16,400 960 Climbing Boston Center
07:10AM 43.1153 -72.5028 272° West 365 420 17,700 1,200 Climbing Boston Center
07:11AM 43.1172 -72.6136 271° West 370 426 18,800 1,200 Climbing Boston Center
07:12AM 43.1211 -72.7586 272° West 363 418 20,200 1,260 Climbing Boston Center
07:13AM 43.1247 -72.8981 272° West 363 418 21,400 1,200 Climbing Boston Center
07:14AM 43.1303 -73.0544 273° West 368 423 22,600 1,020 Climbing Boston Center
07:15AM 43.1336 -73.1969 272° West 368 423 23,500 900 Climbing Boston Center
07:16AM 43.1389 -73.3392 273° West 368 423 24,500 900 Climbing Boston Center
07:17AM 43.1378 -73.4672 269° West 373 429 25,300 900 Climbing Boston Center
07:18AM 43.1406 -73.6125 272° West 378 435 26,300 900 Climbing Boston Center
07:19AM 43.1431 -73.7633 271° West 386 444 27,200 840 Climbing Boston Center
07:20AM 43.1453 -73.9169 271° West 386 444 28,100 900 Climbing Boston Center
07:21AM 43.1475 -74.0564 271° West 380 437 29,000 900 Climbing Boston Center
07:22AM 43.1497 -74.1989 271° West 380 437 30,000 960 Climbing Boston Center
07:23AM 43.1514 -74.3411 271° West 375 432 31,000 900 Climbing Boston Center
07:24AM 43.1533 -74.4808 271° West 375 432 31,900 900 Climbing Boston Center
07:25AM 43.1569 -74.6261 272° West 375 432 32,800 900 Climbing Boston Center
07:26AM 43.1561 -74.7656 270° West 375 432 33,800 900 Climbing Boston Center
07:27AM 43.1572 -74.9078 271° West 375 432 34,700 900 Climbing Boston Center
07:28AM 43.1583 -75.0475 271° West 375 432 35,600 600 Climbing Boston Center
07:29AM 43.1572 -75.1839 269° West 370 426 36,000 180 Climbing Boston Center
07:30AM 43.1600 -75.3322 272° West 370 426 36,000  Level Boston Center
07:31AM 43.1622 -75.4831 271° West 387 445 36,000  Level Boston Center
07:32AM 43.1619 -75.6397 270° West 399 459 36,000 -60 Level Boston Center
07:33AM 43.1639 -75.7964 271° West 404 465 35,900  Descending Boston Center
07:34AM 43.1633 -75.9472 270° West 404 465 36,000  Climbing Boston Center
07:35AM 43.1628 -76.1039 270° West 404 465 36,000  Level Boston Center
07:37AM 43.1614 -76.3278 270° West 394 453 36,000  Level Cleveland Center
07:38AM 43.1608 -76.4814 270° West 399 459 36,000  Level Cleveland Center
07:39AM 43.1619 -76.6353 271° West 404 465 36,000  Level Cleveland Center
07:40AM 43.1567 -76.7864 267° West 409 471 36,000  Level Cleveland Center
07:41AM 43.1572 -76.9400 270° West 404 465 36,000  Level Cleveland Center
07:42AM 43.1539 -77.0942 268° West 404 465 36,000  Level Cleveland Center
07:43AM 43.1522 -77.2508 269° West 404 465 36,000  Level Cleveland Center
07:44AM 43.1522 -77.4044 270° West 404 465 36,000  Level Cleveland Center
07:45AM 43.1483 -77.5639 268° West 409 471 36,000  Level Cleveland Center
07:46AM 43.1458 -77.7206 269° West 409 471 36,000  Level Cleveland Center
07:47AM 43.1433 -77.8772 269° West 409 471 36,000  Level Cleveland Center
07:48AM 43.1408 -78.0367 269° West 419 482 36,000  Level Cleveland Center
07:49AM 43.1381 -78.1961 269° West 419 482 36,000  Level Cleveland Center
07:50AM 43.1328 -78.3586 268° West 419 482 36,000  Level Cleveland Center
07:51AM 43.1317 -78.5181 270° West 424 488 36,000  Level Cleveland Center
07:52AM 43.1261 -78.6775 267° West 424 488 36,000  Level Cleveland Center
07:53AM 43.1242 -78.8311 269° West 424 488 36,000  Level Cleveland Center
07:54AM 43.1183 -78.9906 267° West 424 488 36,000  Level Cleveland Center
07:54AM 43.1167 -79.0333 267° West 420 483 36,000  Level Toronto Center
07:55AM 43.1000 -79.2000 262° West 420 483 36,000  Level Toronto Center
07:56AM 43.1000 -79.3667 270° West 430 495 36,000  Level Toronto Center
07:57AM 43.0833 -79.5167 261° West 430 495 36,000  Level Toronto Center
07:58AM 43.0833 -79.6833 270° West 430 495 36,000  Level Toronto Center
07:59AM 43.0833 -79.8333 270° West 430 495 36,000  Level Toronto Center
08:00AM 43.0833 -80.0000 270° West 420 483 36,000  Level Toronto Center
08:01AM 43.0667 -80.1500 261° West 420 483 36,000  Level Toronto Center
08:02AM 43.0667 -80.3167 270° West 420 483 36,000  Level Toronto Center
08:03AM 43.0667 -80.4833 270° West 430 495 36,000  Level Toronto Center
08:04AM 43.0500 -80.6667 263° West 420 483 36,000  Level Toronto Center
08:05AM 43.0500 -80.8000 270° West 430 495 36,000  Level Toronto Center
08:06AM 43.0333 -80.9500 261° West 420 483 36,000  Level Toronto Center
08:07AM 43.0167 -81.1333 263° West 420 483 36,000  Level Toronto Center
08:08AM 43.0167 -81.2667 270° West 410 472 36,000  Level Toronto Center
08:09AM 43.0167 -81.4333 270° West 410 472 36,000  Level Toronto Center
08:10AM 43.0167 -81.6000 270° West 410 472 36,000  Level Toronto Center
08:11AM 43.0167 -81.7500 270° West 410 472 36,000  Level Toronto Center
08:12AM 43.0167 -81.8833 270° West 410 472 36,000  Level Toronto Center
08:13AM 43.0000 -82.0667 263° West 420 483 36,000  Level Toronto Center
08:14AM 43.0000 -82.2167 270° West 420 483 36,000  Level Toronto Center
08:15AM 43.0000 -82.3833 270° West 420 483 36,000  Level Toronto Center
08:16AM 43.0000 -82.5500 270° West 420 483 36,000  Level Toronto Center
08:17AM 42.9833 -82.7167 262° West 420 483 36,000  Level Toronto Center
08:17AM 43.0000 -82.7803 290° West 420 483 36,000  Level Cleveland Center
08:18AM 42.9928 -82.9333 266° West 420 483 36,000  Level Cleveland Center
08:19AM 42.9894 -83.0836 268° West 420 483 36,000  Level Cleveland Center
08:20AM 42.9842 -83.2367 267° West 414 476 36,000  Level Cleveland Center
08:21AM 42.9783 -83.3956 267° West 414 476 36,000  Level Cleveland Center
08:22AM 42.9744 -83.5458 268° West 414 476 36,000  Level Cleveland Center
08:23AM 42.9664 -83.6986 266° West 414 476 36,000 -60 Level Cleveland Center
08:24AM 42.9558 -83.8483 265° West 404 465 35,900 -180 Descending Cleveland Center
08:25AM 42.9411 -84.0008 263° West 404 465 35,700 -780 Descending Cleveland Center
08:26AM 42.9261 -84.1533 262° West 404 465 34,400 -1,440 Descending Cleveland Center
08:28AM 42.9022 -84.3997 263° West 408 470 32,200 -960 Descending Chicago Center
08:29AM 42.8872 -84.5508 262° West 402 463 32,000 -120 Descending Chicago Center
08:30AM 42.8711 -84.7011 262° West 401 461 32,000  Level Chicago Center
08:31AM 42.8567 -84.8547 263° West 408 470 32,000  Level Chicago Center
08:32AM 42.8394 -85.0081 261° West 410 472 32,000  Level Chicago Center
08:33AM 42.8231 -85.1647 262° West 416 479 32,000 -780 Level Chicago Center
08:34AM 42.8058 -85.3219 262° West 420 483 30,400 -1,980 Descending Chicago Center
08:35AM 42.7842 -85.5111 261° West 421 484 28,000 -2,160 Descending Chicago Center
08:36AM 42.7553 -85.6697 256° West 428 493 26,000 -1,920 Descending Chicago Center
08:37AM 42.7261 -85.8303 256° West 433 498 24,100 -1,800 Descending Chicago Center
08:38AM 42.6975 -85.9878 256° West 428 493 22,300 -1,680 Descending Chicago Center
08:39AM 42.6694 -86.1411 256° West 419 482 20,700 -1,140 Descending Chicago Center
08:40AM 42.6419 -86.2908 256° West 410 472 20,000 -480 Descending Chicago Center
08:41AM 42.6136 -86.4383 255° West 404 465 19,800 -1,020 Descending Chicago Center
08:42AM 42.5806 -86.6167 256° West 407 468 18,000 -1,620 Descending Chicago Center
08:43AM 42.5525 -86.7583 255° West 395 455 16,500 -1,500 Descending Chicago Center
08:45AM 42.5150 -86.8947 250° West 387 445 14,900 -1,620 Descending Chicago Center
08:46AM 42.4789 -87.0267 250° West 375 432 13,200 -1,740 Descending Chicago Center
08:47AM 42.4292 -87.1294 237° Southwest 340 391 11,400 -1,500 Descending Chicago Center
08:48AM 42.3592 -87.1958 215° Southwest 305 351 10,100 -1,500 Descending Chicago Center
08:49AM 42.2897 -87.2619 215° Southwest 277 319 8,300 -1,800 Descending Chicago Center
08:50AM 42.2289 -87.3211 216° Southwest 272 313 6,400 -1,680 Descending Chicago Center
08:51AM 42.1700 -87.3792 216° Southwest 266 306 4,900 -1,320 Descending Chicago Center
08:52AM 42.1167 -87.4333 217° Southwest 247 284 4,000 -540 Descending Chicago TRACON
08:53AM 42.0833 -87.5000 236° Southwest 239 275 4,000  Level Chicago TRACON
08:54AM 42.0500 -87.6000 246° West 248 285 4,000  Level Chicago TRACON
08:55AM 42.0333 -87.6667 251° West 246 283 4,000 -720 Level Chicago TRACON
08:56AM 42.0167 -87.7500 255° West 193 222 2,700 -960 Descending Chicago TRACON
08:57AM 42.0000 -87.8000 246° West 145 167 2,100 -600 Descending Chicago TRACON
08:58AM 42.0000 -87.8500 270° West 117 135 1,500 -660 Descending Chicago TRACON
08:59AM 42.0000 -87.9000 270° West 131 151 800 -720 Descending Chicago TRACON
09:00AM 41.9817 -87.9067 253° West  Level Estimated